sensor_id;sensor_type;location;lat;lon;timestamp;P1;durP1;ratioP1;P2;durP2;ratioP2
16660;SDS011;8444;52.012;5.048;2023-05-03T00:02:04;2.10;;;1.57;;
16660;SDS011;8444;52.012;5.048;2023-05-03T00:04:30;5.53;;;1.70;;
16660;SDS011;8444;52.012;5.048;2023-05-03T00:06:56;3.43;;;1.30;;
16660;SDS011;8444;52.012;5.048;2023-05-03T00:09:21;3.90;;;1.57;;
16660;SDS011;8444;52.012;5.048;2023-05-03T00:11:46;4.40;;;1.97;;
16660;SDS011;8444;52.012;5.048;2023-05-03T00:14:11;3.07;;;2.07;;
16660;SDS011;8444;52.012;5.048;2023-05-03T00:16:37;4.57;;;2.00;;
16660;SDS011;8444;52.012;5.048;2023-05-03T00:19:03;2.17;;;1.70;;
16660;SDS011;8444;52.012;5.048;2023-05-03T00:21:28;3.93;;;1.97;;
16660;SDS011;8444;52.012;5.048;2023-05-03T00:23:53;2.20;;;2.00;;
16660;SDS011;8444;52.012;5.048;2023-05-03T00:26:19;2.10;;;1.83;;
16660;SDS011;8444;52.012;5.048;2023-05-03T00:28:45;3.67;;;2.10;;
16660;SDS011;8444;52.012;5.048;2023-05-03T00:31:10;2.63;;;1.80;;
16660;SDS011;8444;52.012;5.048;2023-05-03T00:33:36;2.73;;;1.93;;
16660;SDS011;8444;52.012;5.048;2023-05-03T00:36:11;5.23;;;2.93;;
16660;SDS011;8444;52.012;5.048;2023-05-03T00:38:37;5.00;;;2.43;;
16660;SDS011;8444;52.012;5.048;2023-05-03T00:41:02;2.80;;;2.00;;
16660;SDS011;8444;52.012;5.048;2023-05-03T00:43:27;10.27;;;1.97;;
16660;SDS011;8444;52.012;5.048;2023-05-03T00:45:53;2.73;;;2.13;;
16660;SDS011;8444;52.012;5.048;2023-05-03T00:48:18;5.27;;;1.73;;
16660;SDS011;8444;52.012;5.048;2023-05-03T00:50:44;3.87;;;2.30;;
16660;SDS011;8444;52.012;5.048;2023-05-03T00:53:09;2.20;;;1.83;;
16660;SDS011;8444;52.012;5.048;2023-05-03T00:55:35;3.23;;;1.43;;
16660;SDS011;8444;52.012;5.048;2023-05-03T00:58:00;5.10;;;2.23;;
16660;SDS011;8444;52.012;5.048;2023-05-03T01:00:25;3.07;;;1.77;;
16660;SDS011;8444;52.012;5.048;2023-05-03T01:02:50;3.30;;;1.83;;
16660;SDS011;8444;52.012;5.048;2023-05-03T01:05:16;6.60;;;2.33;;
16660;SDS011;8444;52.012;5.048;2023-05-03T01:07:48;3.13;;;1.93;;
16660;SDS011;8444;52.012;5.048;2023-05-03T01:10:38;3.47;;;2.27;;
16660;SDS011;8444;52.012;5.048;2023-05-03T01:15:44;3.23;;;1.57;;
16660;SDS011;8444;52.012;5.048;2023-05-03T01:18:14;2.43;;;2.03;;
16660;SDS011;8444;52.012;5.048;2023-05-03T01:20:41;5.47;;;2.30;;
16660;SDS011;8444;52.012;5.048;2023-05-03T01:23:13;4.67;;;1.83;;
16660;SDS011;8444;52.012;5.048;2023-05-03T01:25:39;2.93;;;1.77;;
16660;SDS011;8444;52.012;5.048;2023-05-03T01:28:04;5.90;;;2.10;;
16660;SDS011;8444;52.012;5.048;2023-05-03T01:30:29;3.37;;;1.60;;
16660;SDS011;8444;52.012;5.048;2023-05-03T01:32:57;2.97;;;1.93;;
16660;SDS011;8444;52.012;5.048;2023-05-03T01:35:28;1.67;;;1.57;;
16660;SDS011;8444;52.012;5.048;2023-05-03T01:37:54;4.93;;;1.80;;
16660;SDS011;8444;52.012;5.048;2023-05-03T01:40:20;3.57;;;1.90;;
16660;SDS011;8444;52.012;5.048;2023-05-03T01:42:46;5.53;;;2.20;;
16660;SDS011;8444;52.012;5.048;2023-05-03T01:45:12;3.83;;;1.90;;
16660;SDS011;8444;52.012;5.048;2023-05-03T01:47:38;2.27;;;2.03;;
16660;SDS011;8444;52.012;5.048;2023-05-03T01:50:03;4.13;;;2.20;;
16660;SDS011;8444;52.012;5.048;2023-05-03T01:52:28;5.77;;;2.27;;
16660;SDS011;8444;52.012;5.048;2023-05-03T01:54:54;6.03;;;2.63;;
16660;SDS011;8444;52.012;5.048;2023-05-03T01:57:19;6.90;;;2.53;;
16660;SDS011;8444;52.012;5.048;2023-05-03T01:59:44;4.70;;;2.40;;
16660;SDS011;8444;52.012;5.048;2023-05-03T02:02:09;3.23;;;2.20;;
16660;SDS011;8444;52.012;5.048;2023-05-03T02:04:35;3.70;;;2.10;;
16660;SDS011;8444;52.012;5.048;2023-05-03T02:07:00;9.00;;;2.37;;
16660;SDS011;8444;52.012;5.048;2023-05-03T02:09:25;4.20;;;2.00;;
16660;SDS011;8444;52.012;5.048;2023-05-03T02:11:51;4.83;;;2.40;;
16660;SDS011;8444;52.012;5.048;2023-05-03T02:14:16;9.03;;;2.40;;
16660;SDS011;8444;52.012;5.048;2023-05-03T02:16:41;11.70;;;3.00;;
16660;SDS011;8444;52.012;5.048;2023-05-03T02:19:07;2.40;;;2.10;;
16660;SDS011;8444;52.012;5.048;2023-05-03T02:21:33;3.60;;;1.87;;
16660;SDS011;8444;52.012;5.048;2023-05-03T02:23:58;2.23;;;2.03;;
16660;SDS011;8444;52.012;5.048;2023-05-03T02:26:23;4.27;;;2.27;;
16660;SDS011;8444;52.012;5.048;2023-05-03T02:28:49;3.93;;;2.47;;
16660;SDS011;8444;52.012;5.048;2023-05-03T02:31:14;6.07;;;2.50;;
16660;SDS011;8444;52.012;5.048;2023-05-03T02:33:39;4.57;;;2.50;;
16660;SDS011;8444;52.012;5.048;2023-05-03T02:36:05;4.60;;;2.00;;
16660;SDS011;8444;52.012;5.048;2023-05-03T02:38:30;3.20;;;2.60;;
16660;SDS011;8444;52.012;5.048;2023-05-03T02:40:55;5.37;;;2.37;;
16660;SDS011;8444;52.012;5.048;2023-05-03T02:43:21;6.07;;;2.80;;
16660;SDS011;8444;52.012;5.048;2023-05-03T02:45:46;5.20;;;2.40;;
16660;SDS011;8444;52.012;5.048;2023-05-03T02:48:11;3.10;;;2.60;;
16660;SDS011;8444;52.012;5.048;2023-05-03T02:50:37;4.87;;;2.70;;
16660;SDS011;8444;52.012;5.048;2023-05-03T02:53:02;9.13;;;2.33;;
16660;SDS011;8444;52.012;5.048;2023-05-03T02:55:28;4.20;;;2.10;;
16660;SDS011;8444;52.012;5.048;2023-05-03T02:57:53;2.83;;;2.30;;
16660;SDS011;8444;52.012;5.048;2023-05-03T03:00:18;3.00;;;2.53;;
16660;SDS011;8444;52.012;5.048;2023-05-03T03:02:44;4.67;;;2.63;;
16660;SDS011;8444;52.012;5.048;2023-05-03T03:05:09;4.10;;;2.20;;
16660;SDS011;8444;52.012;5.048;2023-05-03T03:07:36;4.60;;;2.57;;
16660;SDS011;8444;52.012;5.048;2023-05-03T03:10:01;5.63;;;2.00;;
16660;SDS011;8444;52.012;5.048;2023-05-03T03:12:28;3.70;;;2.20;;
16660;SDS011;8444;52.012;5.048;2023-05-03T03:14:53;4.20;;;2.07;;
16660;SDS011;8444;52.012;5.048;2023-05-03T03:17:18;5.63;;;2.20;;
16660;SDS011;8444;52.012;5.048;2023-05-03T03:19:43;9.40;;;3.53;;
16660;SDS011;8444;52.012;5.048;2023-05-03T03:22:09;2.57;;;1.83;;
16660;SDS011;8444;52.012;5.048;2023-05-03T03:24:34;2.53;;;2.20;;
16660;SDS011;8444;52.012;5.048;2023-05-03T03:26:59;3.17;;;2.17;;
16660;SDS011;8444;52.012;5.048;2023-05-03T03:29:24;4.13;;;2.20;;
16660;SDS011;8444;52.012;5.048;2023-05-03T03:31:50;6.30;;;2.63;;
16660;SDS011;8444;52.012;5.048;2023-05-03T03:34:15;4.00;;;2.20;;
16660;SDS011;8444;52.012;5.048;2023-05-03T03:36:40;3.83;;;2.20;;
16660;SDS011;8444;52.012;5.048;2023-05-03T03:39:05;2.83;;;2.03;;
16660;SDS011;8444;52.012;5.048;2023-05-03T03:41:31;2.97;;;2.30;;
16660;SDS011;8444;52.012;5.048;2023-05-03T03:43:56;6.93;;;3.10;;
16660;SDS011;8444;52.012;5.048;2023-05-03T03:46:22;2.87;;;2.00;;
16660;SDS011;8444;52.012;5.048;2023-05-03T03:48:47;3.30;;;2.00;;
16660;SDS011;8444;52.012;5.048;2023-05-03T03:51:12;3.50;;;2.07;;
16660;SDS011;8444;52.012;5.048;2023-05-03T03:53:37;4.73;;;2.13;;
16660;SDS011;8444;52.012;5.048;2023-05-03T03:56:03;2.63;;;2.37;;
16660;SDS011;8444;52.012;5.048;2023-05-03T03:58:28;3.60;;;2.30;;
16660;SDS011;8444;52.012;5.048;2023-05-03T04:00:53;7.17;;;2.33;;
16660;SDS011;8444;52.012;5.048;2023-05-03T04:03:18;4.27;;;2.10;;
16660;SDS011;8444;52.012;5.048;2023-05-03T04:05:44;7.83;;;2.70;;
16660;SDS011;8444;52.012;5.048;2023-05-03T04:08:09;6.57;;;2.13;;
16660;SDS011;8444;52.012;5.048;2023-05-03T04:10:35;3.60;;;2.57;;
16660;SDS011;8444;52.012;5.048;2023-05-03T04:13:00;3.30;;;2.47;;
16660;SDS011;8444;52.012;5.048;2023-05-03T04:15:25;3.03;;;2.40;;
16660;SDS011;8444;52.012;5.048;2023-05-03T04:17:50;4.70;;;2.30;;
16660;SDS011;8444;52.012;5.048;2023-05-03T04:20:16;3.53;;;2.57;;
16660;SDS011;8444;52.012;5.048;2023-05-03T04:22:42;4.60;;;3.30;;
16660;SDS011;8444;52.012;5.048;2023-05-03T04:25:09;5.30;;;2.50;;
16660;SDS011;8444;52.012;5.048;2023-05-03T04:27:34;6.13;;;2.80;;
16660;SDS011;8444;52.012;5.048;2023-05-03T04:30:00;4.60;;;2.20;;
16660;SDS011;8444;52.012;5.048;2023-05-03T04:32:26;2.97;;;1.80;;
16660;SDS011;8444;52.012;5.048;2023-05-03T04:34:51;2.73;;;2.00;;
16660;SDS011;8444;52.012;5.048;2023-05-03T04:37:18;4.97;;;3.00;;
16660;SDS011;8444;52.012;5.048;2023-05-03T04:39:43;4.67;;;2.33;;
16660;SDS011;8444;52.012;5.048;2023-05-03T04:42:09;4.50;;;2.30;;
16660;SDS011;8444;52.012;5.048;2023-05-03T04:44:34;5.73;;;2.10;;
16660;SDS011;8444;52.012;5.048;2023-05-03T04:47:00;4.30;;;2.47;;
16660;SDS011;8444;52.012;5.048;2023-05-03T04:49:26;4.67;;;2.60;;
16660;SDS011;8444;52.012;5.048;2023-05-03T04:51:51;5.03;;;2.40;;
16660;SDS011;8444;52.012;5.048;2023-05-03T04:54:16;3.97;;;2.63;;
16660;SDS011;8444;52.012;5.048;2023-05-03T04:56:42;4.67;;;3.17;;
16660;SDS011;8444;52.012;5.048;2023-05-03T04:59:07;4.47;;;3.20;;
16660;SDS011;8444;52.012;5.048;2023-05-03T05:01:32;4.53;;;2.63;;
16660;SDS011;8444;52.012;5.048;2023-05-03T05:03:58;5.10;;;2.30;;
16660;SDS011;8444;52.012;5.048;2023-05-03T05:06:23;9.87;;;2.83;;
16660;SDS011;8444;52.012;5.048;2023-05-03T05:08:49;4.50;;;2.50;;
16660;SDS011;8444;52.012;5.048;2023-05-03T05:11:14;2.57;;;2.33;;
16660;SDS011;8444;52.012;5.048;2023-05-03T05:13:40;4.93;;;2.03;;
16660;SDS011;8444;52.012;5.048;2023-05-03T05:16:05;4.87;;;2.77;;
16660;SDS011;8444;52.012;5.048;2023-05-03T05:18:30;5.27;;;2.03;;
16660;SDS011;8444;52.012;5.048;2023-05-03T05:20:56;2.30;;;2.10;;
16660;SDS011;8444;52.012;5.048;2023-05-03T05:23:21;2.97;;;2.10;;
16660;SDS011;8444;52.012;5.048;2023-05-03T05:25:46;4.47;;;2.33;;
16660;SDS011;8444;52.012;5.048;2023-05-03T05:28:12;3.93;;;2.53;;
16660;SDS011;8444;52.012;5.048;2023-05-03T05:30:37;5.33;;;2.40;;
16660;SDS011;8444;52.012;5.048;2023-05-03T05:33:02;1.60;;;1.50;;
16660;SDS011;8444;52.012;5.048;2023-05-03T05:35:27;2.90;;;2.20;;
16660;SDS011;8444;52.012;5.048;2023-05-03T05:37:53;3.67;;;1.83;;
16660;SDS011;8444;52.012;5.048;2023-05-03T05:40:18;3.07;;;1.97;;
16660;SDS011;8444;52.012;5.048;2023-05-03T05:42:43;8.03;;;2.40;;
16660;SDS011;8444;52.012;5.048;2023-05-03T05:45:10;7.10;;;1.70;;
16660;SDS011;8444;52.012;5.048;2023-05-03T05:47:35;3.40;;;2.00;;
16660;SDS011;8444;52.012;5.048;2023-05-03T05:50:00;1.60;;;1.50;;
16660;SDS011;8444;52.012;5.048;2023-05-03T05:52:25;2.20;;;1.60;;
16660;SDS011;8444;52.012;5.048;2023-05-03T05:54:51;6.00;;;1.83;;
16660;SDS011;8444;52.012;5.048;2023-05-03T05:59:55;5.80;;;2.03;;
16660;SDS011;8444;52.012;5.048;2023-05-03T06:02:20;2.97;;;1.77;;
16660;SDS011;8444;52.012;5.048;2023-05-03T06:04:48;5.23;;;2.00;;
16660;SDS011;8444;52.012;5.048;2023-05-03T06:07:14;4.93;;;2.03;;
16660;SDS011;8444;52.012;5.048;2023-05-03T06:09:40;3.97;;;1.87;;
16660;SDS011;8444;52.012;5.048;2023-05-03T06:12:06;6.00;;;1.73;;
16660;SDS011;8444;52.012;5.048;2023-05-03T06:14:31;4.30;;;1.80;;
16660;SDS011;8444;52.012;5.048;2023-05-03T06:16:57;1.97;;;1.67;;
16660;SDS011;8444;52.012;5.048;2023-05-03T06:19:23;4.33;;;1.97;;
16660;SDS011;8444;52.012;5.048;2023-05-03T06:21:48;3.77;;;2.20;;
16660;SDS011;8444;52.012;5.048;2023-05-03T06:24:15;6.40;;;1.93;;
16660;SDS011;8444;52.012;5.048;2023-05-03T06:26:44;3.07;;;1.23;;
16660;SDS011;8444;52.012;5.048;2023-05-03T06:29:10;3.57;;;1.60;;
16660;SDS011;8444;52.012;5.048;2023-05-03T06:31:35;3.73;;;1.47;;
16660;SDS011;8444;52.012;5.048;2023-05-03T06:34:00;1.50;;;1.20;;
16660;SDS011;8444;52.012;5.048;2023-05-03T06:36:25;2.43;;;1.23;;
16660;SDS011;8444;52.012;5.048;2023-05-03T06:38:51;4.03;;;1.53;;
16660;SDS011;8444;52.012;5.048;2023-05-03T06:41:16;5.17;;;1.43;;
16660;SDS011;8444;52.012;5.048;2023-05-03T06:43:42;2.07;;;1.30;;
16660;SDS011;8444;52.012;5.048;2023-05-03T06:46:07;4.37;;;1.40;;
16660;SDS011;8444;52.012;5.048;2023-05-03T06:48:32;1.80;;;1.30;;
16660;SDS011;8444;52.012;5.048;2023-05-03T06:50:57;2.90;;;1.67;;
16660;SDS011;8444;52.012;5.048;2023-05-03T06:53:22;3.23;;;1.43;;
16660;SDS011;8444;52.012;5.048;2023-05-03T06:55:48;2.10;;;1.80;;
16660;SDS011;8444;52.012;5.048;2023-05-03T06:58:13;2.90;;;1.60;;
16660;SDS011;8444;52.012;5.048;2023-05-03T07:00:38;3.97;;;1.53;;
16660;SDS011;8444;52.012;5.048;2023-05-03T07:03:04;4.50;;;1.70;;
16660;SDS011;8444;52.012;5.048;2023-05-03T07:05:29;4.60;;;1.50;;
16660;SDS011;8444;52.012;5.048;2023-05-03T07:07:54;4.43;;;1.57;;
16660;SDS011;8444;52.012;5.048;2023-05-03T07:10:19;3.17;;;1.90;;
16660;SDS011;8444;52.012;5.048;2023-05-03T07:12:45;4.33;;;1.77;;
16660;SDS011;8444;52.012;5.048;2023-05-03T07:15:10;1.80;;;1.47;;
16660;SDS011;8444;52.012;5.048;2023-05-03T07:17:35;4.40;;;1.40;;
16660;SDS011;8444;52.012;5.048;2023-05-03T07:20:00;6.77;;;1.90;;
16660;SDS011;8444;52.012;5.048;2023-05-03T07:22:25;1.83;;;1.00;;
16660;SDS011;8444;52.012;5.048;2023-05-03T07:24:51;2.67;;;1.23;;
16660;SDS011;8444;52.012;5.048;2023-05-03T07:27:18;3.20;;;1.83;;
16660;SDS011;8444;52.012;5.048;2023-05-03T07:29:43;3.30;;;1.27;;
16660;SDS011;8444;52.012;5.048;2023-05-03T07:32:09;8.43;;;1.70;;
16660;SDS011;8444;52.012;5.048;2023-05-03T07:34:34;2.60;;;1.30;;
16660;SDS011;8444;52.012;5.048;2023-05-03T07:36:59;3.43;;;1.30;;
16660;SDS011;8444;52.012;5.048;2023-05-03T07:39:25;8.33;;;1.70;;
16660;SDS011;8444;52.012;5.048;2023-05-03T07:41:50;2.43;;;1.60;;
16660;SDS011;8444;52.012;5.048;2023-05-03T07:44:15;6.10;;;1.58;;
16660;SDS011;8444;52.012;5.048;2023-05-03T07:46:40;3.57;;;1.17;;
16660;SDS011;8444;52.012;5.048;2023-05-03T07:49:05;3.60;;;1.33;;
16660;SDS011;8444;52.012;5.048;2023-05-03T07:51:37;1.83;;;1.30;;
16660;SDS011;8444;52.012;5.048;2023-05-03T07:54:02;1.38;;;1.15;;
16660;SDS011;8444;52.012;5.048;2023-05-03T07:56:28;3.05;;;1.73;;
16660;SDS011;8444;52.012;5.048;2023-05-03T07:58:53;3.88;;;1.38;;
16660;SDS011;8444;52.012;5.048;2023-05-03T08:01:19;4.63;;;1.40;;
16660;SDS011;8444;52.012;5.048;2023-05-03T08:03:44;4.93;;;1.60;;
16660;SDS011;8444;52.012;5.048;2023-05-03T08:06:09;3.63;;;1.85;;
16660;SDS011;8444;52.012;5.048;2023-05-03T08:08:35;3.90;;;1.45;;
16660;SDS011;8444;52.012;5.048;2023-05-03T08:11:00;3.38;;;1.83;;
16660;SDS011;8444;52.012;5.048;2023-05-03T08:13:25;4.90;;;1.55;;
16660;SDS011;8444;52.012;5.048;2023-05-03T08:15:51;2.05;;;1.65;;
16660;SDS011;8444;52.012;5.048;2023-05-03T08:18:16;4.07;;;1.95;;
16660;SDS011;8444;52.012;5.048;2023-05-03T08:20:41;3.05;;;1.80;;
16660;SDS011;8444;52.012;5.048;2023-05-03T08:23:07;3.45;;;1.35;;
16660;SDS011;8444;52.012;5.048;2023-05-03T08:25:33;4.43;;;1.90;;
16660;SDS011;8444;52.012;5.048;2023-05-03T08:27:58;4.78;;;1.88;;
16660;SDS011;8444;52.012;5.048;2023-05-03T08:30:23;2.22;;;1.70;;
16660;SDS011;8444;52.012;5.048;2023-05-03T08:32:49;3.70;;;1.58;;
16660;SDS011;8444;52.012;5.048;2023-05-03T08:35:15;3.17;;;2.30;;
16660;SDS011;8444;52.012;5.048;2023-05-03T08:37:41;3.65;;;2.20;;
16660;SDS011;8444;52.012;5.048;2023-05-03T08:40:07;2.15;;;1.63;;
16660;SDS011;8444;52.012;5.048;2023-05-03T08:42:37;3.00;;;1.42;;
16660;SDS011;8444;52.012;5.048;2023-05-03T08:45:02;2.70;;;1.50;;
16660;SDS011;8444;52.012;5.048;2023-05-03T08:47:28;1.80;;;1.40;;
16660;SDS011;8444;52.012;5.048;2023-05-03T08:49:57;3.08;;;1.58;;
16660;SDS011;8444;52.012;5.048;2023-05-03T08:52:23;1.85;;;1.48;;
16660;SDS011;8444;52.012;5.048;2023-05-03T08:54:48;3.78;;;1.95;;
16660;SDS011;8444;52.012;5.048;2023-05-03T08:57:14;1.75;;;1.40;;
16660;SDS011;8444;52.012;5.048;2023-05-03T08:59:47;1.90;;;1.38;;
16660;SDS011;8444;52.012;5.048;2023-05-03T09:02:13;5.80;;;1.90;;
16660;SDS011;8444;52.012;5.048;2023-05-03T09:04:38;4.07;;;1.73;;
16660;SDS011;8444;52.012;5.048;2023-05-03T09:07:06;2.20;;;1.48;;
16660;SDS011;8444;52.012;5.048;2023-05-03T09:09:32;3.45;;;2.03;;
16660;SDS011;8444;52.012;5.048;2023-05-03T09:11:57;3.25;;;1.63;;
16660;SDS011;8444;52.012;5.048;2023-05-03T09:14:22;3.45;;;1.80;;
16660;SDS011;8444;52.012;5.048;2023-05-03T09:16:48;3.95;;;1.65;;
16660;SDS011;8444;52.012;5.048;2023-05-03T09:19:14;3.05;;;1.70;;
16660;SDS011;8444;52.012;5.048;2023-05-03T09:21:40;1.98;;;1.38;;
16660;SDS011;8444;52.012;5.048;2023-05-03T09:24:23;3.80;;;1.60;;
16660;SDS011;8444;52.012;5.048;2023-05-03T09:26:49;4.70;;;1.77;;
16660;SDS011;8444;52.012;5.048;2023-05-03T09:29:28;4.78;;;1.52;;
16660;SDS011;8444;52.012;5.048;2023-05-03T09:31:58;4.15;;;1.38;;
16660;SDS011;8444;52.012;5.048;2023-05-03T09:34:24;4.68;;;1.63;;
16660;SDS011;8444;52.012;5.048;2023-05-03T09:36:49;5.25;;;1.88;;
16660;SDS011;8444;52.012;5.048;2023-05-03T09:39:15;2.55;;;1.63;;
16660;SDS011;8444;52.012;5.048;2023-05-03T09:41:40;2.33;;;1.80;;
16660;SDS011;8444;52.012;5.048;2023-05-03T09:44:06;3.63;;;1.80;;
16660;SDS011;8444;52.012;5.048;2023-05-03T09:46:31;3.83;;;1.50;;
16660;SDS011;8444;52.012;5.048;2023-05-03T09:48:57;4.60;;;1.60;;
16660;SDS011;8444;52.012;5.048;2023-05-03T09:51:22;2.13;;;1.30;;
16660;SDS011;8444;52.012;5.048;2023-05-03T09:53:48;2.58;;;1.58;;
16660;SDS011;8444;52.012;5.048;2023-05-03T09:56:13;2.92;;;1.65;;
16660;SDS011;8444;52.012;5.048;2023-05-03T09:58:39;1.70;;;1.38;;
16660;SDS011;8444;52.012;5.048;2023-05-03T10:01:05;3.28;;;1.35;;
16660;SDS011;8444;52.012;5.048;2023-05-03T10:03:33;3.47;;;1.58;;
16660;SDS011;8444;52.012;5.048;2023-05-03T10:06:02;3.33;;;1.63;;
16660;SDS011;8444;52.012;5.048;2023-05-03T10:08:33;4.60;;;2.05;;
16660;SDS011;8444;52.012;5.048;2023-05-03T10:11:00;4.15;;;2.15;;
16660;SDS011;8444;52.012;5.048;2023-05-03T10:13:26;4.70;;;1.95;;
16660;SDS011;8444;52.012;5.048;2023-05-03T10:15:55;1.70;;;1.50;;
16660;SDS011;8444;52.012;5.048;2023-05-03T10:18:22;3.20;;;1.42;;
16660;SDS011;8444;52.012;5.048;2023-05-03T10:20:51;5.43;;;1.98;;
16660;SDS011;8444;52.012;5.048;2023-05-03T10:23:18;3.17;;;1.40;;
16660;SDS011;8444;52.012;5.048;2023-05-03T10:28:28;3.15;;;1.60;;
16660;SDS011;8444;52.012;5.048;2023-05-03T10:30:53;12.33;;;2.23;;
16660;SDS011;8444;52.012;5.048;2023-05-03T10:35:50;6.57;;;1.77;;
16660;SDS011;8444;52.012;5.048;2023-05-03T10:38:19;4.18;;;1.65;;
16660;SDS011;8444;52.012;5.048;2023-05-03T10:40:45;1.98;;;1.77;;
16660;SDS011;8444;52.012;5.048;2023-05-03T10:45:57;4.20;;;2.20;;
16660;SDS011;8444;52.012;5.048;2023-05-03T10:48:22;4.57;;;2.00;;
16660;SDS011;8444;52.012;5.048;2023-05-03T10:50:47;4.15;;;1.45;;
16660;SDS011;8444;52.012;5.048;2023-05-03T10:53:33;3.78;;;2.20;;
16660;SDS011;8444;52.012;5.048;2023-05-03T10:56:00;4.75;;;1.75;;
16660;SDS011;8444;52.012;5.048;2023-05-03T10:58:26;2.17;;;1.38;;
16660;SDS011;8444;52.012;5.048;2023-05-03T11:00:51;5.70;;;2.00;;
16660;SDS011;8444;52.012;5.048;2023-05-03T11:05:50;4.63;;;1.85;;
16660;SDS011;8444;52.012;5.048;2023-05-03T11:08:19;1.50;;;1.40;;
16660;SDS011;8444;52.012;5.048;2023-05-03T11:10:48;4.05;;;1.75;;
16660;SDS011;8444;52.012;5.048;2023-05-03T11:13:14;5.22;;;2.08;;
16660;SDS011;8444;52.012;5.048;2023-05-03T11:15:39;2.20;;;1.70;;
16660;SDS011;8444;52.012;5.048;2023-05-03T11:18:08;3.40;;;1.73;;
16660;SDS011;8444;52.012;5.048;2023-05-03T11:20:35;2.75;;;1.88;;
16660;SDS011;8444;52.012;5.048;2023-05-03T11:23:01;4.80;;;2.60;;
16660;SDS011;8444;52.012;5.048;2023-05-03T11:25:26;3.55;;;1.95;;
16660;SDS011;8444;52.012;5.048;2023-05-03T11:27:51;3.22;;;2.20;;
16660;SDS011;8444;52.012;5.048;2023-05-03T11:30:17;4.72;;;2.20;;
16660;SDS011;8444;52.012;5.048;2023-05-03T11:32:42;7.57;;;2.55;;
16660;SDS011;8444;52.012;5.048;2023-05-03T11:35:08;3.42;;;1.50;;
16660;SDS011;8444;52.012;5.048;2023-05-03T11:37:33;4.65;;;1.75;;
16660;SDS011;8444;52.012;5.048;2023-05-03T11:39:59;3.45;;;2.10;;
16660;SDS011;8444;52.012;5.048;2023-05-03T11:42:24;2.60;;;1.85;;
16660;SDS011;8444;52.012;5.048;2023-05-03T11:44:53;2.63;;;1.77;;
16660;SDS011;8444;52.012;5.048;2023-05-03T11:47:20;5.28;;;1.95;;
16660;SDS011;8444;52.012;5.048;2023-05-03T11:49:51;4.28;;;1.77;;
16660;SDS011;8444;52.012;5.048;2023-05-03T11:52:19;2.47;;;1.80;;
16660;SDS011;8444;52.012;5.048;2023-05-03T11:54:44;3.65;;;1.88;;
16660;SDS011;8444;52.012;5.048;2023-05-03T11:57:11;3.23;;;1.67;;
16660;SDS011;8444;52.012;5.048;2023-05-03T11:59:37;5.03;;;2.47;;
16660;SDS011;8444;52.012;5.048;2023-05-03T12:02:03;3.47;;;2.20;;
16660;SDS011;8444;52.012;5.048;2023-05-03T12:04:29;3.78;;;2.08;;
16660;SDS011;8444;52.012;5.048;2023-05-03T12:06:54;3.28;;;2.08;;
16660;SDS011;8444;52.012;5.048;2023-05-03T12:09:20;3.50;;;1.90;;
16660;SDS011;8444;52.012;5.048;2023-05-03T12:11:45;5.70;;;1.95;;
16660;SDS011;8444;52.012;5.048;2023-05-03T12:14:13;6.15;;;2.38;;
16660;SDS011;8444;52.012;5.048;2023-05-03T12:16:45;6.15;;;1.95;;
16660;SDS011;8444;52.012;5.048;2023-05-03T12:19:10;2.83;;;1.92;;
16660;SDS011;8444;52.012;5.048;2023-05-03T12:21:43;5.00;;;1.97;;
16660;SDS011;8444;52.012;5.048;2023-05-03T12:24:08;2.00;;;1.80;;
16660;SDS011;8444;52.012;5.048;2023-05-03T12:26:33;4.60;;;2.00;;
16660;SDS011;8444;52.012;5.048;2023-05-03T12:28:58;3.67;;;2.20;;
16660;SDS011;8444;52.012;5.048;2023-05-03T12:31:24;2.90;;;1.97;;
16660;SDS011;8444;52.012;5.048;2023-05-03T12:33:49;3.03;;;2.53;;
16660;SDS011;8444;52.012;5.048;2023-05-03T12:36:14;3.42;;;2.22;;
16660;SDS011;8444;52.012;5.048;2023-05-03T12:38:40;3.20;;;2.15;;
16660;SDS011;8444;52.012;5.048;2023-05-03T12:41:05;3.58;;;1.95;;
16660;SDS011;8444;52.012;5.048;2023-05-03T12:43:30;3.28;;;2.22;;
16660;SDS011;8444;52.012;5.048;2023-05-03T12:45:56;3.17;;;2.13;;
16660;SDS011;8444;52.012;5.048;2023-05-03T12:48:22;3.65;;;2.10;;
16660;SDS011;8444;52.012;5.048;2023-05-03T12:50:48;4.13;;;2.15;;
16660;SDS011;8444;52.012;5.048;2023-05-03T12:53:14;6.05;;;1.83;;
16660;SDS011;8444;52.012;5.048;2023-05-03T12:55:39;2.63;;;1.73;;
16660;SDS011;8444;52.012;5.048;2023-05-03T12:58:04;4.50;;;1.70;;
16660;SDS011;8444;52.012;5.048;2023-05-03T13:00:30;5.55;;;2.35;;
16660;SDS011;8444;52.012;5.048;2023-05-03T13:02:55;4.18;;;2.45;;
16660;SDS011;8444;52.012;5.048;2023-05-03T13:05:20;3.50;;;1.97;;
16660;SDS011;8444;52.012;5.048;2023-05-03T13:07:45;3.03;;;2.25;;
16660;SDS011;8444;52.012;5.048;2023-05-03T13:10:12;4.47;;;2.15;;
16660;SDS011;8444;52.012;5.048;2023-05-03T13:12:37;2.45;;;1.95;;
16660;SDS011;8444;52.012;5.048;2023-05-03T13:15:03;3.50;;;1.77;;
16660;SDS011;8444;52.012;5.048;2023-05-03T13:17:29;2.13;;;1.83;;
16660;SDS011;8444;52.012;5.048;2023-05-03T13:19:55;3.42;;;2.17;;
16660;SDS011;8444;52.012;5.048;2023-05-03T13:22:20;4.63;;;2.33;;
16660;SDS011;8444;52.012;5.048;2023-05-03T13:24:46;2.95;;;1.90;;
16660;SDS011;8444;52.012;5.048;2023-05-03T13:27:11;4.45;;;1.92;;
16660;SDS011;8444;52.012;5.048;2023-05-03T13:29:37;2.65;;;1.98;;
16660;SDS011;8444;52.012;5.048;2023-05-03T13:32:02;4.53;;;1.65;;
16660;SDS011;8444;52.012;5.048;2023-05-03T13:34:27;3.55;;;2.03;;
16660;SDS011;8444;52.012;5.048;2023-05-03T13:36:53;5.85;;;2.90;;
16660;SDS011;8444;52.012;5.048;2023-05-03T13:39:19;2.85;;;1.98;;
16660;SDS011;8444;52.012;5.048;2023-05-03T13:41:44;4.15;;;2.08;;
16660;SDS011;8444;52.012;5.048;2023-05-03T13:44:10;3.55;;;1.88;;
16660;SDS011;8444;52.012;5.048;2023-05-03T13:46:35;7.80;;;2.55;;
16660;SDS011;8444;52.012;5.048;2023-05-03T13:49:01;4.47;;;2.50;;
16660;SDS011;8444;52.012;5.048;2023-05-03T13:51:26;4.82;;;2.55;;
16660;SDS011;8444;52.012;5.048;2023-05-03T13:53:52;3.47;;;2.45;;
16660;SDS011;8444;52.012;5.048;2023-05-03T13:56:17;9.30;;;2.65;;
16660;SDS011;8444;52.012;5.048;2023-05-03T13:58:43;5.50;;;2.95;;
16660;SDS011;8444;52.012;5.048;2023-05-03T14:01:08;8.63;;;3.60;;
16660;SDS011;8444;52.012;5.048;2023-05-03T14:03:33;4.27;;;2.50;;
16660;SDS011;8444;52.012;5.048;2023-05-03T14:05:58;4.80;;;2.30;;
16660;SDS011;8444;52.012;5.048;2023-05-03T14:08:23;7.72;;;2.80;;
16660;SDS011;8444;52.012;5.048;2023-05-03T14:10:49;3.35;;;2.50;;
16660;SDS011;8444;52.012;5.048;2023-05-03T14:13:14;3.70;;;2.50;;
16660;SDS011;8444;52.012;5.048;2023-05-03T14:15:40;4.72;;;2.50;;
16660;SDS011;8444;52.012;5.048;2023-05-03T14:18:06;2.58;;;2.30;;
16660;SDS011;8444;52.012;5.048;2023-05-03T14:20:32;4.93;;;3.03;;
16660;SDS011;8444;52.012;5.048;2023-05-03T14:22:58;7.13;;;2.78;;
16660;SDS011;8444;52.012;5.048;2023-05-03T14:25:24;3.75;;;2.83;;
16660;SDS011;8444;52.012;5.048;2023-05-03T14:27:49;4.07;;;2.88;;
16660;SDS011;8444;52.012;5.048;2023-05-03T14:30:15;5.00;;;2.58;;
16660;SDS011;8444;52.012;5.048;2023-05-03T14:32:40;5.20;;;2.92;;
16660;SDS011;8444;52.012;5.048;2023-05-03T14:35:05;2.70;;;2.15;;
16660;SDS011;8444;52.012;5.048;2023-05-03T14:37:31;3.38;;;2.42;;
16660;SDS011;8444;52.012;5.048;2023-05-03T14:39:57;7.05;;;2.78;;
16660;SDS011;8444;52.012;5.048;2023-05-03T14:42:22;2.92;;;2.70;;
16660;SDS011;8444;52.012;5.048;2023-05-03T14:44:48;3.70;;;2.13;;
16660;SDS011;8444;52.012;5.048;2023-05-03T14:47:13;2.83;;;2.58;;
16660;SDS011;8444;52.012;5.048;2023-05-03T14:49:38;2.97;;;2.67;;
16660;SDS011;8444;52.012;5.048;2023-05-03T14:52:07;3.85;;;2.78;;
16660;SDS011;8444;52.012;5.048;2023-05-03T14:54:33;4.15;;;2.75;;
16660;SDS011;8444;52.012;5.048;2023-05-03T14:56:58;3.58;;;2.40;;
16660;SDS011;8444;52.012;5.048;2023-05-03T14:59:23;4.57;;;2.55;;
16660;SDS011;8444;52.012;5.048;2023-05-03T15:01:50;2.67;;;2.10;;
16660;SDS011;8444;52.012;5.048;2023-05-03T15:04:15;3.22;;;2.50;;
16660;SDS011;8444;52.012;5.048;2023-05-03T15:06:40;2.40;;;2.20;;
16660;SDS011;8444;52.012;5.048;2023-05-03T15:09:06;3.85;;;2.53;;